sensor_id;sensor_type;location;lat;lon;timestamp;P1;durP1;ratioP1;P2;durP2;ratioP2
16957;SDS011;8595;52.542;11.974;2022-07-09T00:00:57;7.18;;;3.90;;
16957;SDS011;8595;52.542;11.974;2022-07-09T00:03:24;6.30;;;4.07;;
16957;SDS011;8595;52.542;11.974;2022-07-09T00:05:51;7.75;;;4.03;;
16957;SDS011;8595;52.542;11.974;2022-07-09T00:08:20;8.00;;;4.28;;
16957;SDS011;8595;52.542;11.974;2022-07-09T00:10:48;7.10;;;3.85;;
16957;SDS011;8595;52.542;11.974;2022-07-09T00:13:15;6.35;;;4.13;;
16957;SDS011;8595;52.542;11.974;2022-07-09T00:15:41;7.43;;;4.00;;
16957;SDS011;8595;52.542;11.974;2022-07-09T00:18:08;6.57;;;4.00;;
16957;SDS011;8595;52.542;11.974;2022-07-09T00:20:35;10.68;;;4.95;;
16957;SDS011;8595;52.542;11.974;2022-07-09T00:23:02;10.05;;;4.32;;
16957;SDS011;8595;52.542;11.974;2022-07-09T00:25:28;9.10;;;4.50;;
16957;SDS011;8595;52.542;11.974;2022-07-09T00:27:56;7.97;;;4.25;;
16957;SDS011;8595;52.542;11.974;2022-07-09T00:30:23;9.13;;;4.43;;
16957;SDS011;8595;52.542;11.974;2022-07-09T00:32:49;7.65;;;4.00;;
16957;SDS011;8595;52.542;11.974;2022-07-09T00:35:16;11.80;;;4.93;;
16957;SDS011;8595;52.542;11.974;2022-07-09T00:37:43;7.00;;;4.32;;
16957;SDS011;8595;52.542;11.974;2022-07-09T00:40:10;11.02;;;4.70;;
16957;SDS011;8595;52.542;11.974;2022-07-09T00:42:37;10.50;;;4.80;;
16957;SDS011;8595;52.542;11.974;2022-07-09T00:45:05;11.15;;;4.03;;
16957;SDS011;8595;52.542;11.974;2022-07-09T00:47:33;7.65;;;4.28;;
16957;SDS011;8595;52.542;11.974;2022-07-09T00:49:59;7.28;;;4.40;;
16957;SDS011;8595;52.542;11.974;2022-07-09T00:52:26;9.80;;;4.30;;
16957;SDS011;8595;52.542;11.974;2022-07-09T00:54:54;8.20;;;4.10;;
16957;SDS011;8595;52.542;11.974;2022-07-09T00:57:22;10.02;;;4.38;;
16957;SDS011;8595;52.542;11.974;2022-07-09T00:59:49;10.27;;;4.20;;
16957;SDS011;8595;52.542;11.974;2022-07-09T01:02:17;10.95;;;4.78;;
16957;SDS011;8595;52.542;11.974;2022-07-09T01:04:45;11.32;;;4.38;;
16957;SDS011;8595;52.542;11.974;2022-07-09T01:07:12;14.68;;;5.80;;
16957;SDS011;8595;52.542;11.974;2022-07-09T01:09:39;13.68;;;4.85;;
16957;SDS011;8595;52.542;11.974;2022-07-09T01:12:06;12.77;;;5.47;;
16957;SDS011;8595;52.542;11.974;2022-07-09T01:14:33;9.20;;;5.28;;
16957;SDS011;8595;52.542;11.974;2022-07-09T01:17:01;7.72;;;4.30;;
16957;SDS011;8595;52.542;11.974;2022-07-09T01:19:30;7.07;;;4.22;;
16957;SDS011;8595;52.542;11.974;2022-07-09T01:21:59;7.35;;;4.75;;
16957;SDS011;8595;52.542;11.974;2022-07-09T01:24:26;7.53;;;4.22;;
16957;SDS011;8595;52.542;11.974;2022-07-09T01:26:53;15.52;;;4.30;;
16957;SDS011;8595;52.542;11.974;2022-07-09T01:29:20;8.30;;;3.67;;
16957;SDS011;8595;52.542;11.974;2022-07-09T01:31:46;18.83;;;3.50;;
16957;SDS011;8595;52.542;11.974;2022-07-09T01:34:13;94.82;;;11.15;;
16957;SDS011;8595;52.542;11.974;2022-07-09T01:36:40;9.00;;;4.43;;
16957;SDS011;8595;52.542;11.974;2022-07-09T01:39:08;6.43;;;3.85;;
16957;SDS011;8595;52.542;11.974;2022-07-09T01:41:35;7.03;;;4.22;;
16957;SDS011;8595;52.542;11.974;2022-07-09T01:44:01;9.27;;;4.35;;
16957;SDS011;8595;52.542;11.974;2022-07-09T01:46:28;10.45;;;5.03;;
16957;SDS011;8595;52.542;11.974;2022-07-09T01:48:55;8.70;;;4.90;;
16957;SDS011;8595;52.542;11.974;2022-07-09T01:51:21;6.03;;;4.03;;
16957;SDS011;8595;52.542;11.974;2022-07-09T01:53:48;14.65;;;5.50;;
16957;SDS011;8595;52.542;11.974;2022-07-09T01:56:16;8.40;;;4.45;;
16957;SDS011;8595;52.542;11.974;2022-07-09T01:58:42;10.73;;;5.75;;
16957;SDS011;8595;52.542;11.974;2022-07-09T02:01:10;13.80;;;5.60;;
16957;SDS011;8595;52.542;11.974;2022-07-09T02:03:36;13.52;;;5.53;;
16957;SDS011;8595;52.542;11.974;2022-07-09T02:06:03;10.10;;;5.30;;
16957;SDS011;8595;52.542;11.974;2022-07-09T02:08:30;13.00;;;6.05;;
16957;SDS011;8595;52.542;11.974;2022-07-09T02:10:57;7.57;;;5.35;;
16957;SDS011;8595;52.542;11.974;2022-07-09T02:13:25;8.20;;;5.38;;
16957;SDS011;8595;52.542;11.974;2022-07-09T02:15:51;10.00;;;6.03;;
16957;SDS011;8595;52.542;11.974;2022-07-09T02:18:19;14.15;;;6.10;;
16957;SDS011;8595;52.542;11.974;2022-07-09T02:20:45;13.32;;;6.40;;
16957;SDS011;8595;52.542;11.974;2022-07-09T02:23:12;9.93;;;6.20;;
16957;SDS011;8595;52.542;11.974;2022-07-09T02:25:39;10.85;;;5.80;;
16957;SDS011;8595;52.542;11.974;2022-07-09T02:28:05;12.57;;;6.15;;
16957;SDS011;8595;52.542;11.974;2022-07-09T02:30:33;11.05;;;5.80;;
16957;SDS011;8595;52.542;11.974;2022-07-09T02:33:01;14.50;;;5.57;;
16957;SDS011;8595;52.542;11.974;2022-07-09T02:35:28;13.80;;;6.57;;
16957;SDS011;8595;52.542;11.974;2022-07-09T02:37:55;12.95;;;6.70;;
16957;SDS011;8595;52.542;11.974;2022-07-09T02:40:22;14.10;;;6.28;;
16957;SDS011;8595;52.542;11.974;2022-07-09T02:42:49;14.90;;;6.93;;
16957;SDS011;8595;52.542;11.974;2022-07-09T02:45:15;12.00;;;6.50;;
16957;SDS011;8595;52.542;11.974;2022-07-09T02:47:43;12.55;;;6.57;;
16957;SDS011;8595;52.542;11.974;2022-07-09T02:50:10;13.50;;;5.75;;
16957;SDS011;8595;52.542;11.974;2022-07-09T02:52:36;22.83;;;7.65;;
16957;SDS011;8595;52.542;11.974;2022-07-09T02:55:03;15.02;;;7.38;;
16957;SDS011;8595;52.542;11.974;2022-07-09T02:57:30;14.05;;;6.40;;
16957;SDS011;8595;52.542;11.974;2022-07-09T02:59:57;11.35;;;6.40;;
16957;SDS011;8595;52.542;11.974;2022-07-09T03:02:24;15.00;;;8.40;;
16957;SDS011;8595;52.542;11.974;2022-07-09T03:04:52;17.42;;;7.32;;
16957;SDS011;8595;52.542;11.974;2022-07-09T03:07:18;15.90;;;7.53;;
16957;SDS011;8595;52.542;11.974;2022-07-09T03:09:46;13.95;;;6.97;;
16957;SDS011;8595;52.542;11.974;2022-07-09T03:12:13;11.73;;;7.00;;
16957;SDS011;8595;52.542;11.974;2022-07-09T03:14:39;17.05;;;7.05;;
16957;SDS011;8595;52.542;11.974;2022-07-09T03:17:06;13.68;;;7.25;;
16957;SDS011;8595;52.542;11.974;2022-07-09T03:19:33;14.05;;;7.45;;
16957;SDS011;8595;52.542;11.974;2022-07-09T03:22:00;18.48;;;8.25;;
16957;SDS011;8595;52.542;11.974;2022-07-09T03:24:27;13.13;;;6.88;;
16957;SDS011;8595;52.542;11.974;2022-07-09T03:26:54;15.82;;;7.68;;
16957;SDS011;8595;52.542;11.974;2022-07-09T03:29:20;15.23;;;7.00;;
16957;SDS011;8595;52.542;11.974;2022-07-09T03:31:47;16.73;;;8.30;;
16957;SDS011;8595;52.542;11.974;2022-07-09T03:34:14;12.75;;;7.25;;
16957;SDS011;8595;52.542;11.974;2022-07-09T03:36:41;12.65;;;6.53;;
16957;SDS011;8595;52.542;11.974;2022-07-09T03:39:08;19.40;;;7.20;;
16957;SDS011;8595;52.542;11.974;2022-07-09T03:41:35;12.20;;;6.45;;
16957;SDS011;8595;52.542;11.974;2022-07-09T03:44:02;11.98;;;6.80;;
16957;SDS011;8595;52.542;11.974;2022-07-09T03:46:29;11.10;;;6.30;;
16957;SDS011;8595;52.542;11.974;2022-07-09T03:48:56;21.77;;;8.18;;
16957;SDS011;8595;52.542;11.974;2022-07-09T03:51:22;12.88;;;6.38;;
16957;SDS011;8595;52.542;11.974;2022-07-09T03:53:49;11.35;;;6.10;;
16957;SDS011;8595;52.542;11.974;2022-07-09T03:56:17;12.63;;;6.30;;
16957;SDS011;8595;52.542;11.974;2022-07-09T03:58:45;14.23;;;6.38;;
16957;SDS011;8595;52.542;11.974;2022-07-09T04:01:12;12.07;;;7.32;;
16957;SDS011;8595;52.542;11.974;2022-07-09T04:03:38;14.45;;;6.30;;
16957;SDS011;8595;52.542;11.974;2022-07-09T04:06:05;12.90;;;6.60;;
16957;SDS011;8595;52.542;11.974;2022-07-09T04:08:31;11.45;;;6.70;;
16957;SDS011;8595;52.542;11.974;2022-07-09T04:10:58;12.93;;;5.95;;
16957;SDS011;8595;52.542;11.974;2022-07-09T04:13:26;12.75;;;5.78;;
16957;SDS011;8595;52.542;11.974;2022-07-09T04:15:53;11.15;;;5.32;;
16957;SDS011;8595;52.542;11.974;2022-07-09T04:18:20;16.50;;;6.53;;
16957;SDS011;8595;52.542;11.974;2022-07-09T04:20:46;12.45;;;5.93;;
16957;SDS011;8595;52.542;11.974;2022-07-09T04:23:13;13.20;;;5.97;;
16957;SDS011;8595;52.542;11.974;2022-07-09T04:25:40;13.57;;;6.97;;
16957;SDS011;8595;52.542;11.974;2022-07-09T04:28:06;15.00;;;6.10;;
16957;SDS011;8595;52.542;11.974;2022-07-09T04:30:34;15.93;;;6.20;;
16957;SDS011;8595;52.542;11.974;2022-07-09T04:33:01;11.15;;;6.25;;
16957;SDS011;8595;52.542;11.974;2022-07-09T04:35:27;14.57;;;6.22;;
16957;SDS011;8595;52.542;11.974;2022-07-09T04:37:54;9.30;;;5.63;;
16957;SDS011;8595;52.542;11.974;2022-07-09T04:40:21;11.65;;;6.07;;
16957;SDS011;8595;52.542;11.974;2022-07-09T04:42:47;12.77;;;5.93;;
16957;SDS011;8595;52.542;11.974;2022-07-09T04:45:15;11.85;;;6.80;;
16957;SDS011;8595;52.542;11.974;2022-07-09T04:47:43;10.55;;;6.47;;
16957;SDS011;8595;52.542;11.974;2022-07-09T04:50:10;13.50;;;6.25;;
16957;SDS011;8595;52.542;11.974;2022-07-09T04:52:37;10.98;;;6.80;;
16957;SDS011;8595;52.542;11.974;2022-07-09T04:55:04;13.10;;;6.93;;
16957;SDS011;8595;52.542;11.974;2022-07-09T04:57:31;12.68;;;7.30;;
16957;SDS011;8595;52.542;11.974;2022-07-09T04:59:58;17.85;;;6.80;;
16957;SDS011;8595;52.542;11.974;2022-07-09T05:02:25;14.57;;;6.85;;
16957;SDS011;8595;52.542;11.974;2022-07-09T05:04:53;11.38;;;5.72;;
16957;SDS011;8595;52.542;11.974;2022-07-09T05:07:19;13.13;;;6.45;;
16957;SDS011;8595;52.542;11.974;2022-07-09T05:09:46;11.65;;;6.22;;
16957;SDS011;8595;52.542;11.974;2022-07-09T05:12:13;10.70;;;5.93;;
16957;SDS011;8595;52.542;11.974;2022-07-09T05:14:39;9.90;;;6.05;;
16957;SDS011;8595;52.542;11.974;2022-07-09T05:17:06;11.85;;;6.22;;
16957;SDS011;8595;52.542;11.974;2022-07-09T05:19:32;14.85;;;5.65;;
16957;SDS011;8595;52.542;11.974;2022-07-09T05:22:00;11.90;;;5.93;;
16957;SDS011;8595;52.542;11.974;2022-07-09T05:24:27;13.73;;;5.65;;
16957;SDS011;8595;52.542;11.974;2022-07-09T05:26:54;8.35;;;5.05;;
16957;SDS011;8595;52.542;11.974;2022-07-09T05:29:20;11.10;;;5.28;;
16957;SDS011;8595;52.542;11.974;2022-07-09T05:31:47;9.32;;;5.13;;
16957;SDS011;8595;52.542;11.974;2022-07-09T05:34:14;10.70;;;5.10;;
16957;SDS011;8595;52.542;11.974;2022-07-09T05:36:41;10.82;;;5.30;;
16957;SDS011;8595;52.542;11.974;2022-07-09T05:39:09;11.73;;;6.07;;
16957;SDS011;8595;52.542;11.974;2022-07-09T05:41:36;9.93;;;6.00;;
16957;SDS011;8595;52.542;11.974;2022-07-09T05:44:03;13.45;;;5.63;;
16957;SDS011;8595;52.542;11.974;2022-07-09T05:46:29;10.25;;;5.57;;
16957;SDS011;8595;52.542;11.974;2022-07-09T05:48:56;11.32;;;5.32;;
16957;SDS011;8595;52.542;11.974;2022-07-09T05:51:22;10.52;;;5.55;;
16957;SDS011;8595;52.542;11.974;2022-07-09T05:53:49;7.60;;;5.18;;
16957;SDS011;8595;52.542;11.974;2022-07-09T05:56:17;8.50;;;4.90;;
16957;SDS011;8595;52.542;11.974;2022-07-09T05:58:44;14.38;;;5.78;;
16957;SDS011;8595;52.542;11.974;2022-07-09T06:01:10;9.30;;;5.07;;
16957;SDS011;8595;52.542;11.974;2022-07-09T06:03:38;7.00;;;4.60;;
16957;SDS011;8595;52.542;11.974;2022-07-09T06:06:05;15.27;;;5.70;;
16957;SDS011;8595;52.542;11.974;2022-07-09T06:08:32;13.07;;;5.10;;
16957;SDS011;8595;52.542;11.974;2022-07-09T06:10:58;10.20;;;5.30;;
16957;SDS011;8595;52.542;11.974;2022-07-09T06:13:27;12.82;;;5.88;;
16957;SDS011;8595;52.542;11.974;2022-07-09T06:15:53;9.13;;;5.07;;
16957;SDS011;8595;52.542;11.974;2022-07-09T06:18:20;14.23;;;5.22;;
16957;SDS011;8595;52.542;11.974;2022-07-09T06:20:47;8.98;;;5.00;;
16957;SDS011;8595;52.542;11.974;2022-07-09T06:23:14;9.43;;;4.32;;
16957;SDS011;8595;52.542;11.974;2022-07-09T06:25:40;10.95;;;5.25;;
16957;SDS011;8595;52.542;11.974;2022-07-09T06:28:07;12.43;;;4.63;;
16957;SDS011;8595;52.542;11.974;2022-07-09T06:30:35;14.73;;;5.25;;
16957;SDS011;8595;52.542;11.974;2022-07-09T06:33:01;10.40;;;4.50;;
16957;SDS011;8595;52.542;11.974;2022-07-09T06:35:28;11.23;;;4.75;;
16957;SDS011;8595;52.542;11.974;2022-07-09T06:37:56;12.15;;;4.68;;
16957;SDS011;8595;52.542;11.974;2022-07-09T06:40:23;14.50;;;4.93;;
16957;SDS011;8595;52.542;11.974;2022-07-09T06:42:49;10.48;;;4.97;;
16957;SDS011;8595;52.542;11.974;2022-07-09T06:45:16;10.65;;;4.47;;
16957;SDS011;8595;52.542;11.974;2022-07-09T06:47:44;12.35;;;5.25;;
16957;SDS011;8595;52.542;11.974;2022-07-09T06:50:10;14.00;;;5.57;;
16957;SDS011;8595;52.542;11.974;2022-07-09T06:52:37;11.30;;;4.93;;
16957;SDS011;8595;52.542;11.974;2022-07-09T06:55:04;9.50;;;4.28;;
16957;SDS011;8595;52.542;11.974;2022-07-09T06:57:31;10.55;;;5.22;;
16957;SDS011;8595;52.542;11.974;2022-07-09T06:59:57;9.55;;;5.38;;
16957;SDS011;8595;52.542;11.974;2022-07-09T07:02:24;10.30;;;4.25;;
16957;SDS011;8595;52.542;11.974;2022-07-09T07:04:52;10.98;;;5.32;;
16957;SDS011;8595;52.542;11.974;2022-07-09T07:07:19;12.75;;;5.65;;
16957;SDS011;8595;52.542;11.974;2022-07-09T07:09:45;12.88;;;5.10;;
16957;SDS011;8595;52.542;11.974;2022-07-09T07:12:12;10.75;;;5.20;;
16957;SDS011;8595;52.542;11.974;2022-07-09T07:14:39;10.75;;;5.38;;
16957;SDS011;8595;52.542;11.974;2022-07-09T07:17:06;12.13;;;5.97;;
16957;SDS011;8595;52.542;11.974;2022-07-09T07:19:32;10.27;;;5.20;;
16957;SDS011;8595;52.542;11.974;2022-07-09T07:22:00;11.93;;;5.40;;
16957;SDS011;8595;52.542;11.974;2022-07-09T07:24:27;15.07;;;5.38;;
16957;SDS011;8595;52.542;11.974;2022-07-09T07:26:55;15.55;;;5.18;;
16957;SDS011;8595;52.542;11.974;2022-07-09T07:29:21;11.23;;;4.10;;
16957;SDS011;8595;52.542;11.974;2022-07-09T07:31:48;5.35;;;3.45;;
16957;SDS011;8595;52.542;11.974;2022-07-09T07:34:15;14.07;;;4.50;;
16957;SDS011;8595;52.542;11.974;2022-07-09T07:36:43;11.43;;;4.43;;
16957;SDS011;8595;52.542;11.974;2022-07-09T07:39:11;9.20;;;3.80;;
16957;SDS011;8595;52.542;11.974;2022-07-09T07:41:38;6.85;;;3.78;;
16957;SDS011;8595;52.542;11.974;2022-07-09T07:44:04;11.43;;;4.55;;
16957;SDS011;8595;52.542;11.974;2022-07-09T07:46:31;11.43;;;4.20;;
16957;SDS011;8595;52.542;11.974;2022-07-09T07:48:57;11.05;;;4.03;;
16957;SDS011;8595;52.542;11.974;2022-07-09T07:51:24;8.60;;;3.53;;
16957;SDS011;8595;52.542;11.974;2022-07-09T07:53:51;9.77;;;4.10;;
16957;SDS011;8595;52.542;11.974;2022-07-09T07:56:18;8.65;;;3.85;;
16957;SDS011;8595;52.542;11.974;2022-07-09T07:58:45;9.00;;;3.30;;
16957;SDS011;8595;52.542;11.974;2022-07-09T08:01:12;7.65;;;3.50;;
16957;SDS011;8595;52.542;11.974;2022-07-09T08:03:38;9.77;;;3.55;;
16957;SDS011;8595;52.542;11.974;2022-07-09T08:06:05;8.55;;;3.83;;
16957;SDS011;8595;52.542;11.974;2022-07-09T08:08:32;7.22;;;3.53;;
16957;SDS011;8595;52.542;11.974;2022-07-09T08:10:59;6.97;;;3.50;;
16957;SDS011;8595;52.542;11.974;2022-07-09T08:13:28;6.72;;;2.75;;
16957;SDS011;8595;52.542;11.974;2022-07-09T08:15:55;4.85;;;2.92;;
16957;SDS011;8595;52.542;11.974;2022-07-09T08:18:22;10.15;;;3.05;;
16957;SDS011;8595;52.542;11.974;2022-07-09T08:20:49;7.45;;;3.15;;
16957;SDS011;8595;52.542;11.974;2022-07-09T08:23:17;4.75;;;3.20;;
16957;SDS011;8595;52.542;11.974;2022-07-09T08:25:43;5.72;;;2.83;;
16957;SDS011;8595;52.542;11.974;2022-07-09T08:28:10;6.57;;;2.97;;
16957;SDS011;8595;52.542;11.974;2022-07-09T08:30:38;7.57;;;3.55;;
16957;SDS011;8595;52.542;11.974;2022-07-09T08:33:04;5.35;;;2.80;;
16957;SDS011;8595;52.542;11.974;2022-07-09T08:35:31;6.60;;;3.42;;
16957;SDS011;8595;52.542;11.974;2022-07-09T08:37:57;5.82;;;2.75;;
16957;SDS011;8595;52.542;11.974;2022-07-09T08:40:24;3.55;;;2.33;;
16957;SDS011;8595;52.542;11.974;2022-07-09T08:42:52;6.78;;;2.45;;
16957;SDS011;8595;52.542;11.974;2022-07-09T08:45:19;4.10;;;2.40;;
16957;SDS011;8595;52.542;11.974;2022-07-09T08:47:48;4.93;;;2.60;;
16957;SDS011;8595;52.542;11.974;2022-07-09T08:50:15;4.82;;;2.75;;
16957;SDS011;8595;52.542;11.974;2022-07-09T08:52:42;7.57;;;2.85;;
16957;SDS011;8595;52.542;11.974;2022-07-09T08:55:09;5.07;;;2.30;;
16957;SDS011;8595;52.542;11.974;2022-07-09T08:57:36;4.40;;;2.65;;
16957;SDS011;8595;52.542;11.974;2022-07-09T09:00:04;2.95;;;2.10;;
16957;SDS011;8595;52.542;11.974;2022-07-09T09:02:35;4.22;;;2.10;;
16957;SDS011;8595;52.542;11.974;2022-07-09T09:05:08;6.03;;;2.78;;
16957;SDS011;8595;52.542;11.974;2022-07-09T09:07:36;4.10;;;2.40;;
16957;SDS011;8595;52.542;11.974;2022-07-09T09:10:03;5.82;;;2.85;;
16957;SDS011;8595;52.542;11.974;2022-07-09T09:12:30;4.60;;;2.42;;
16957;SDS011;8595;52.542;11.974;2022-07-09T09:14:57;7.32;;;2.88;;
16957;SDS011;8595;52.542;11.974;2022-07-09T09:17:24;4.50;;;2.55;;
16957;SDS011;8595;52.542;11.974;2022-07-09T09:19:51;5.07;;;2.47;;
16957;SDS011;8595;52.542;11.974;2022-07-09T09:22:19;5.45;;;2.88;;
16957;SDS011;8595;52.542;11.974;2022-07-09T09:24:48;3.05;;;2.47;;
16957;SDS011;8595;52.542;11.974;2022-07-09T09:27:16;4.07;;;2.50;;
16957;SDS011;8595;52.542;11.974;2022-07-09T09:29:48;3.70;;;2.25;;
16957;SDS011;8595;52.542;11.974;2022-07-09T09:32:18;4.35;;;2.53;;
16957;SDS011;8595;52.542;11.974;2022-07-09T09:34:50;3.97;;;2.70;;
16957;SDS011;8595;52.542;11.974;2022-07-09T09:37:25;3.58;;;2.38;;
16957;SDS011;8595;52.542;11.974;2022-07-09T09:39:53;2.83;;;2.35;;
16957;SDS011;8595;52.542;11.974;2022-07-09T09:42:19;3.80;;;2.33;;
16957;SDS011;8595;52.542;11.974;2022-07-09T09:44:50;3.10;;;2.22;;
16957;SDS011;8595;52.542;11.974;2022-07-09T09:47:17;3.60;;;2.33;;
16957;SDS011;8595;52.542;11.974;2022-07-09T09:49:48;4.35;;;2.30;;
16957;SDS011;8595;52.542;11.974;2022-07-09T09:52:15;6.55;;;2.80;;
16957;SDS011;8595;52.542;11.974;2022-07-09T09:54:47;3.40;;;2.38;;
16957;SDS011;8595;52.542;11.974;2022-07-09T09:57:14;4.90;;;2.63;;
16957;SDS011;8595;52.542;11.974;2022-07-09T09:59:43;7.13;;;2.50;;
16957;SDS011;8595;52.542;11.974;2022-07-09T10:02:10;6.30;;;2.90;;
16957;SDS011;8595;52.542;11.974;2022-07-09T10:04:37;6.05;;;2.85;;
16957;SDS011;8595;52.542;11.974;2022-07-09T10:07:07;4.30;;;2.33;;
16957;SDS011;8595;52.542;11.974;2022-07-09T10:09:35;5.82;;;2.88;;
16957;SDS011;8595;52.542;11.974;2022-07-09T10:12:03;5.03;;;2.15;;
16957;SDS011;8595;52.542;11.974;2022-07-09T10:14:31;6.28;;;3.38;;
16957;SDS011;8595;52.542;11.974;2022-07-09T10:19:52;4.45;;;2.70;;
16957;SDS011;8595;52.542;11.974;2022-07-09T10:22:20;4.03;;;2.95;;
16957;SDS011;8595;52.542;11.974;2022-07-09T10:24:50;6.20;;;3.33;;
16957;SDS011;8595;52.542;11.974;2022-07-09T10:27:18;4.22;;;3.10;;
16957;SDS011;8595;52.542;11.974;2022-07-09T10:32:30;3.83;;;2.47;;
16957;SDS011;8595;52.542;11.974;2022-07-09T10:34:58;4.05;;;2.40;;
16957;SDS011;8595;52.542;11.974;2022-07-09T10:37:33;4.30;;;2.60;;
16957;SDS011;8595;52.542;11.974;2022-07-09T10:40:10;6.43;;;2.83;;
16957;SDS011;8595;52.542;11.974;2022-07-09T10:42:40;3.28;;;2.75;;
16957;SDS011;8595;52.542;11.974;2022-07-09T10:45:20;4.80;;;2.42;;
16957;SDS011;8595;52.542;11.974;2022-07-09T10:47:51;3.13;;;2.42;;
16957;SDS011;8595;52.542;11.974;2022-07-09T10:50:19;3.28;;;2.53;;
16957;SDS011;8595;52.542;11.974;2022-07-09T10:52:45;4.10;;;2.60;;
16957;SDS011;8595;52.542;11.974;2022-07-09T10:55:14;5.72;;;2.75;;
16957;SDS011;8595;52.542;11.974;2022-07-09T10:57:43;3.92;;;2.90;;
16957;SDS011;8595;52.542;11.974;2022-07-09T11:00:13;3.22;;;2.90;;
16957;SDS011;8595;52.542;11.974;2022-07-09T11:02:50;5.72;;;3.00;;
16957;SDS011;8595;52.542;11.974;2022-07-09T11:05:17;3.65;;;3.20;;
16957;SDS011;8595;52.542;11.974;2022-07-09T11:07:53;6.75;;;3.45;;
16957;SDS011;8595;52.542;11.974;2022-07-09T11:10:27;3.25;;;2.65;;
16957;SDS011;8595;52.542;11.974;2022-07-09T11:12:56;3.17;;;2.60;;
16957;SDS011;8595;52.542;11.974;2022-07-09T11:15:25;3.53;;;2.60;;
16957;SDS011;8595;52.542;11.974;2022-07-09T11:17:59;2.70;;;2.40;;
16957;SDS011;8595;52.542;11.974;2022-07-09T11:20:28;4.50;;;2.67;;
16957;SDS011;8595;52.542;11.974;2022-07-09T11:22:56;5.20;;;2.70;;
16957;SDS011;8595;52.542;11.974;2022-07-09T11:25:25;3.85;;;2.58;;
16957;SDS011;8595;52.542;11.974;2022-07-09T11:27:52;2.95;;;2.65;;
16957;SDS011;8595;52.542;11.974;2022-07-09T11:30:20;3.47;;;2.58;;
16957;SDS011;8595;52.542;11.974;2022-07-09T11:32:47;3.08;;;2.15;;
16957;SDS011;8595;52.542;11.974;2022-07-09T11:35:23;3.80;;;2.25;;
16957;SDS011;8595;52.542;11.974;2022-07-09T11:37:54;3.72;;;2.22;;
16957;SDS011;8595;52.542;11.974;2022-07-09T11:40:21;4.43;;;2.88;;
16957;SDS011;8595;52.542;11.974;2022-07-09T11:42:48;3.50;;;2.40;;
16957;SDS011;8595;52.542;11.974;2022-07-09T11:45:19;2.25;;;1.77;;
16957;SDS011;8595;52.542;11.974;2022-07-09T11:47:48;2.80;;;1.80;;
16957;SDS011;8595;52.542;11.974;2022-07-09T11:50:16;2.10;;;1.75;;
16957;SDS011;8595;52.542;11.974;2022-07-09T11:52:45;3.80;;;1.92;;
16957;SDS011;8595;52.542;11.974;2022-07-09T11:55:14;9.02;;;2.33;;
16957;SDS011;8595;52.542;11.974;2022-07-09T11:57:54;2.47;;;1.65;;
16957;SDS011;8595;52.542;11.974;2022-07-09T12:00:24;1.80;;;1.70;;
16957;SDS011;8595;52.542;11.974;2022-07-09T12:02:52;4.07;;;2.10;;
16957;SDS011;8595;52.542;11.974;2022-07-09T12:05:26;2.90;;;2.08;;
16957;SDS011;8595;52.542;11.974;2022-07-09T12:07:55;2.97;;;2.08;;
16957;SDS011;8595;52.542;11.974;2022-07-09T12:10:27;2.30;;;1.95;;
16957;SDS011;8595;52.542;11.974;2022-07-09T12:12:55;2.47;;;1.90;;
16957;SDS011;8595;52.542;11.974;2022-07-09T12:15:23;2.85;;;2.15;;
16957;SDS011;8595;52.542;11.974;2022-07-09T12:17:50;3.15;;;2.50;;
16957;SDS011;8595;52.542;11.974;2022-07-09T12:20:19;5.57;;;2.10;;
16957;SDS011;8595;52.542;11.974;2022-07-09T12:22:46;2.30;;;2.03;;
16957;SDS011;8595;52.542;11.974;2022-07-09T12:25:12;4.70;;;2.20;;
16957;SDS011;8595;52.542;11.974;2022-07-09T12:27:39;3.38;;;2.05;;
16957;SDS011;8595;52.542;11.974;2022-07-09T12:30:06;4.13;;;1.80;;
16957;SDS011;8595;52.542;11.974;2022-07-09T12:32:35;4.72;;;2.15;;
16957;SDS011;8595;52.542;11.974;2022-07-09T12:35:01;2.38;;;1.42;;
16957;SDS011;8595;52.542;11.974;2022-07-09T12:37:28;2.30;;;1.48;;
16957;SDS011;8595;52.542;11.974;2022-07-09T12:39:55;3.25;;;2.20;;
16957;SDS011;8595;52.542;11.974;2022-07-09T12:42:21;2.13;;;1.63;;
16957;SDS011;8595;52.542;11.974;2022-07-09T12:44:48;2.22;;;1.40;;
16957;SDS011;8595;52.542;11.974;2022-07-09T12:47:15;2.45;;;1.80;;
16957;SDS011;8595;52.542;11.974;2022-07-09T12:49:43;1.58;;;1.48;;
16957;SDS011;8595;52.542;11.974;2022-07-09T12:52:10;2.20;;;1.50;;
16957;SDS011;8595;52.542;11.974;2022-07-09T12:54:37;2.55;;;1.85;;
16957;SDS011;8595;52.542;11.974;2022-07-09T12:57:04;4.32;;;1.60;;
16957;SDS011;8595;52.542;11.974;2022-07-09T12:59:32;2.20;;;1.55;;
16957;SDS011;8595;52.542;11.974;2022-07-09T13:01:58;2.67;;;1.83;;
16957;SDS011;8595;52.542;11.974;2022-07-09T13:04:25;3.05;;;1.55;;
16957;SDS011;8595;52.542;11.974;2022-07-09T13:06:53;2.03;;;1.50;;
16957;SDS011;8595;52.542;11.974;2022-07-09T13:09:19;3.47;;;1.45;;
16957;SDS011;8595;52.542;11.974;2022-07-09T13:11:46;2.88;;;1.60;;
16957;SDS011;8595;52.542;11.974;2022-07-09T13:14:14;3.22;;;1.65;;
16957;SDS011;8595;52.542;11.974;2022-07-09T13:16:41;3.65;;;1.60;;
16957;SDS011;8595;52.542;11.974;2022-07-09T13:19:48;2.97;;;1.95;;
16957;SDS011;8595;52.542;11.974;2022-07-09T13:22:18;2.25;;;1.52;;
16957;SDS011;8595;52.542;11.974;2022-07-09T13:24:45;3.25;;;1.50;;
16957;SDS011;8595;52.542;11.974;2022-07-09T13:27:12;2.42;;;1.48;;
16957;SDS011;8595;52.542;11.974;2022-07-09T13:29:38;2.80;;;1.55;;
16957;SDS011;8595;52.542;11.974;2022-07-09T13:32:05;2.80;;;1.45;;
16957;SDS011;8595;52.542;11.974;2022-07-09T13:34:33;4.07;;;1.45;;
16957;SDS011;8595;52.542;11.974;2022-07-09T13:36:59;2.03;;;1.40;;
16957;SDS011;8595;52.542;11.974;2022-07-09T13:39:27;2.67;;;1.55;;
16957;SDS011;8595;52.542;11.974;2022-07-09T13:41:54;1.83;;;1.40;;
16957;SDS011;8595;52.542;11.974;2022-07-09T13:44:20;2.75;;;1.50;;
16957;SDS011;8595;52.542;11.974;2022-07-09T13:46:47;2.65;;;1.55;;
16957;SDS011;8595;52.542;11.974;2022-07-09T13:49:14;2.65;;;1.50;;
16957;SDS011;8595;52.542;11.974;2022-07-09T13:51:40;5.78;;;1.55;;
16957;SDS011;8595;52.542;11.974;2022-07-09T13:54:07;1.58;;;1.25;;
16957;SDS011;8595;52.542;11.974;2022-07-09T13:56:35;3.20;;;1.20;;
16957;SDS011;8595;52.542;11.974;2022-07-09T13:59:02;3.50;;;1.42;;
16957;SDS011;8595;52.542;11.974;2022-07-09T14:01:28;2.67;;;1.48;;
16957;SDS011;8595;52.542;11.974;2022-07-09T14:03:56;4.63;;;1.55;;
16957;SDS011;8595;52.542;11.974;2022-07-09T14:06:23;6.20;;;1.30;;
16957;SDS011;8595;52.542;11.974;2022-07-09T14:08:50;1.58;;;1.30;;
16957;SDS011;8595;52.542;11.974;2022-07-09T14:11:17;1.85;;;1.23;;
16957;SDS011;8595;52.542;11.974;2022-07-09T14:13:45;1.10;;;1.00;;
16957;SDS011;8595;52.542;11.974;2022-07-09T14:16:13;2.15;;;1.20;;
16957;SDS011;8595;52.542;11.974;2022-07-09T14:18:40;1.45;;;0.90;;
16957;SDS011;8595;52.542;11.974;2022-07-09T14:21:06;2.70;;;1.65;;
16957;SDS011;8595;52.542;11.974;2022-07-09T14:23:33;1.83;;;1.10;;
16957;SDS011;8595;52.542;11.974;2022-07-09T14:26:00;4.22;;;1.25;;
16957;SDS011;8595;52.542;11.974;2022-07-09T14:28:26;1.95;;;1.02;;
16957;SDS011;8595;52.542;11.974;2022-07-09T14:30:54;2.45;;;1.30;;
16957;SDS011;8595;52.542;11.974;2022-07-09T14:33:21;3.00;;;1.33;;
16957;SDS011;8595;52.542;11.974;2022-07-09T14:35:48;7.90;;;1.60;;
16957;SDS011;8595;52.542;11.974;2022-07-09T14:38:14;7.22;;;2.20;;
16957;SDS011;8595;52.542;11.974;2022-07-09T14:40:41;2.75;;;1.70;;
16957;SDS011;8595;52.542;11.974;2022-07-09T14:43:08;5.82;;;2.17;;
16957;SDS011;8595;52.542;11.974;2022-07-09T14:45:34;3.38;;;1.70;;
16957;SDS011;8595;52.542;11.974;2022-07-09T14:48:02;4.07;;;1.88;;
16957;SDS011;8595;52.542;11.974;2022-07-09T14:50:32;8.70;;;2.30;;